Main page
METAR-TAF:

METAR-TAF

Airports :

Genoa, Italy

Genoa Cristoforo Colombo Airport

latitude: 44-25N, longitude: 008-51E, elevation: 2 m

Current weather observation

The report was made 14 minutes ago, at 02:20 UTC
Wind 3 kt from the Northeast
Temperature 16°C
Humidity 55%
Pressure 1017 hPa
Visibility 10 km or more
no clouds below 1500 m and no cumulonimbus

METAR: LIMJ 220220Z 04003KT CAVOK 16/07 Q1017

Time: 04:34 (02:34 UTC)

Forecast

The report was made 3 hours and 34 minutes ago, at 23:00 UTC
Forecast valid from 22 at 00 UTC to 22 at 24 UTC
Wind 8 kt from the North/Northeast
Visibility 10 km or more
no clouds below 1500 m and no cumulonimbus

TAF: LIMJ 212300Z 2200/2224 03008KT CAVOK

Weather observations and forecasts of more than 4000 airports (METAR and TAF reports).

The available stations are represented by yellow and red dots on the map.

Hover mouse over dot to see the name of the station.

Then click to see weather observations and forecasts.

To change the map : click on the green buttons with a black cross to zoom in, on the green button with a dash to zoom out, or on the green arrows for adjacent maps.


METAR-TAF: